Time;durP1;ratioP1;P1;durP2;ratioP2;P2;SDS_P1;SDS_P2;PMS_P1;PMS_P2;Temp;Humidity;BMP_temperature;BMP_pressure;BME280_temperature;BME280_humidity;BME280_pressure;Samples;Min_cycle;Max_cycle;Signal;HPM_P1;HPM_P2
2022/07/21 00:01:52;;;;;;;23.05;15.05;;;;;;;20.15;78.68;101673.53;5034965;28;20025;-77
2022/07/21 00:04:18;;;;;;;22.42;15.80;;;;;;;20.04;79.50;101671.53;5033069;28;20075;-77
2022/07/21 00:06:44;;;;;;;25.60;16.55;;;;;;;19.95;79.98;101660.88;5034404;28;20037;-77
2022/07/21 00:09:10;;;;;;;24.42;16.98;;;;;;;19.97;79.99;101649.72;5034120;28;20017;-77
2022/07/21 00:11:36;;;;;;;22.98;17.30;;;;;;;19.93;80.08;101649.34;5034199;28;20025;-77
2022/07/21 00:14:01;;;;;;;25.10;16.92;;;;;;;19.97;80.51;101648.91;5016100;28;20025;-76
2022/07/21 00:16:27;;;;;;;19.88;14.77;;;;;;;20.06;80.37;101645.63;5034112;28;20044;-77
2022/07/21 00:18:52;;;;;;;23.05;16.55;;;;;;;20.03;80.07;101639.78;5032389;28;20364;-77
2022/07/21 00:21:17;;;;;;;24.23;16.58;;;;;;;20.01;80.45;101639.16;5033789;28;20033;-77
2022/07/21 00:23:43;;;;;;;25.23;16.13;;;;;;;20.04;80.37;101633.28;5033738;28;20107;-76
2022/07/21 00:26:08;;;;;;;23.10;16.70;;;;;;;20.09;80.23;101636.13;5033786;28;20462;-77
2022/07/21 00:28:34;;;;;;;24.08;17.48;;;;;;;20.08;80.31;101639.94;5034162;28;20029;-77
2022/07/21 00:30:59;;;;;;;26.08;15.68;;;;;;;20.12;80.38;101628.34;5034396;28;20029;-76
2022/07/21 00:33:24;;;;;;;24.50;17.33;;;;;;;20.16;80.14;101632.28;5035717;28;20068;-77
2022/07/21 00:35:49;;;;;;;27.55;18.67;;;;;;;20.12;80.22;101625.63;5038153;28;20053;-77
2022/07/21 00:38:15;;;;;;;24.65;16.88;;;;;;;20.10;80.35;101629.63;5034350;28;20053;-76
2022/07/21 00:40:40;;;;;;;28.58;17.85;;;;;;;20.14;80.08;101645.38;5034179;28;20389;-77
2022/07/21 00:43:06;;;;;;;25.92;17.73;;;;;;;20.17;80.33;101646.81;5033741;28;20017;-76
2022/07/21 00:45:31;;;;;;;27.77;18.98;;;;;;;20.16;80.44;101643.22;5032461;28;20048;-77
2022/07/21 00:47:57;;;;;;;26.33;19.23;;;;;;;20.10;80.85;101643.28;5033670;28;20370;-76
2022/07/21 00:50:22;;;;;;;23.90;17.83;;;;;;;20.12;80.36;101643.91;5032289;28;20049;-78
2022/07/21 00:52:48;;;;;;;26.70;19.13;;;;;;;20.03;80.93;101639.78;5031950;28;20103;-76
2022/07/21 00:55:17;;;;;;;27.27;18.98;;;;;;;19.99;81.63;101635.84;5033297;28;20051;-76
2022/07/21 00:57:43;;;;;;;32.65;19.80;;;;;;;19.88;82.01;101635.53;5033249;28;20053;-77
2022/07/21 01:00:12;;;;;;;28.90;20.67;;;;;;;19.81;82.57;101645.66;5031373;28;20508;-75
2022/07/21 01:02:38;;;;;;;29.38;20.67;;;;;;;19.86;82.33;101640.38;5033366;28;20017;-76
2022/07/21 01:05:06;;;;;;;30.67;19.27;;;;;;;19.87;82.23;101642.03;5032904;28;20037;-76
2022/07/21 01:07:32;;;;;;;28.25;19.85;;;;;;;19.85;82.83;101646.03;5033056;28;20036;-77
2022/07/21 01:09:57;;;;;;;27.65;19.45;;;;;;;19.83;82.71;101643.56;5033060;28;20021;-77
2022/07/21 01:12:23;;;;;;;26.67;20.48;;;;;;;19.81;82.56;101642.94;5033010;28;20025;-77
2022/07/21 01:14:49;;;;;;;27.40;19.05;;;;;;;19.87;82.92;101641.19;5032803;28;20037;-76
2022/07/21 01:17:14;;;;;;;27.92;19.65;;;;;;;19.87;82.80;101649.41;5032772;28;20025;-77
2022/07/21 01:19:40;;;;;;;26.92;20.13;;;;;;;19.84;82.65;101647.13;5032919;28;20048;-76
2022/07/21 01:22:06;;;;;;;27.52;19.85;;;;;;;19.88;82.33;101638.25;5031597;28;20076;-77
2022/07/21 01:24:31;;;;;;;29.35;20.80;;;;;;;19.81;82.82;101634.75;5031448;28;20513;-77
2022/07/21 01:26:57;;;;;;;36.75;21.55;;;;;;;19.80;82.79;101624.88;5031350;28;20032;-76
2022/07/21 01:29:23;;;;;;;28.52;19.75;;;;;;;19.76;83.04;101620.09;5031293;28;20037;-76
2022/07/21 01:31:49;;;;;;;29.48;19.83;;;;;;;19.81;83.61;101628.44;5031203;28;20052;-77
2022/07/21 01:34:14;;;;;;;27.65;19.35;;;;;;;19.89;83.81;101625.44;5032495;28;20018;-77
2022/07/21 01:36:40;;;;;;;31.75;18.92;;;;;;;19.99;82.92;101627.66;5030930;28;20057;-76
2022/07/21 01:41:51;;;;;;;31.60;20.33;;;;;;;19.99;82.41;101633.13;5032206;28;20392;-76
2022/07/21 01:44:16;;;;;;;34.80;22.20;;;;;;;19.81;83.30;101629.28;5030979;28;20017;-78
2022/07/21 01:46:44;;;;;;;30.30;20.42;;;;;;;19.83;83.93;101629.91;5032132;28;20101;-78
2022/07/21 01:49:10;;;;;;;36.20;20.70;;;;;;;19.82;83.41;101617.28;5031022;28;20183;-78
2022/07/21 01:51:35;;;;;;;29.90;21.17;;;;;;;19.85;83.36;101614.13;5030832;28;20112;-78
2022/07/21 01:54:01;;;;;;;34.15;22.08;;;;;;;19.83;83.71;101602.56;5014275;28;20032;-77
2022/07/21 01:56:26;;;;;;;28.58;20.73;;;;;;;19.84;83.65;101601.50;5031808;28;20030;-75
2022/07/21 01:58:53;;;;;;;33.10;20.95;;;;;;;19.88;83.64;101608.22;5031807;28;20087;-79
2022/07/21 02:01:20;;;;;;;34.30;21.87;;;;;;;19.81;83.92;101612.06;5030511;28;20033;-77
2022/07/21 02:03:46;;;;;;;33.22;21.08;;;;;;;19.83;83.89;101605.31;5031424;28;20681;-78
2022/07/21 02:06:11;;;;;;;33.60;22.35;;;;;;;19.89;83.85;101614.50;5029962;28;20057;-77
2022/07/21 02:08:37;;;;;;;30.65;21.90;;;;;;;19.90;83.83;101600.59;5030035;28;20142;-77
2022/07/21 02:11:04;;;;;;;32.17;22.60;;;;;;;19.82;84.18;101598.16;5031527;28;20107;-75
2022/07/21 02:13:29;;;;;;;30.03;21.77;;;;;;;19.88;84.02;101580.88;5031574;28;20025;-75
2022/07/21 02:15:55;;;;;;;32.47;21.73;;;;;;;19.95;84.18;101589.00;5031385;28;20026;-78
2022/07/21 02:18:20;;;;;;;32.50;23.02;;;;;;;19.97;83.54;101589.63;5031464;28;20443;-77
2022/07/21 02:20:47;;;;;;;36.00;22.85;;;;;;;19.85;83.91;101586.81;5031452;28;20045;-77
2022/07/21 02:23:13;;;;;;;33.97;22.27;;;;;;;19.88;84.04;101586.34;5029883;28;20084;-78
2022/07/21 02:25:38;;;;;;;37.47;24.75;;;;;;;19.84;84.01;101585.13;5031080;28;20477;-77
2022/07/21 02:28:04;;;;;;;35.38;24.50;;;;;;;19.73;84.70;101594.06;5013352;28;20036;-76
2022/07/21 02:30:29;;;;;;;36.50;23.95;;;;;;;19.77;84.70;101583.50;5031137;28;20455;-77
2022/07/21 02:32:55;;;;;;;39.45;24.35;;;;;;;19.78;84.39;101591.50;5031559;28;20041;-77
2022/07/21 02:35:20;;;;;;;38.00;25.52;;;;;;;19.82;84.46;101594.59;5030831;28;20057;-76
2022/07/21 02:37:45;;;;;;;38.58;23.75;;;;;;;19.74;84.81;101595.72;5031052;28;20094;-76
2022/07/21 02:40:11;;;;;;;38.13;25.33;;;;;;;19.67;85.45;101590.34;5031346;28;20155;-77
2022/07/21 02:42:37;;;;;;;36.00;23.98;;;;;;;19.72;85.19;101589.63;5030789;28;20021;-77
2022/07/21 02:45:05;;;;;;;39.97;25.63;;;;;;;19.67;85.53;101600.44;5031451;28;20064;-76
2022/07/21 02:47:30;;;;;;;43.53;26.05;;;;;;;19.69;85.12;101598.28;5031177;28;20025;-78
2022/07/21 02:49:56;;;;;;;44.83;24.98;;;;;;;19.69;85.31;101588.19;5029293;28;20508;-77
2022/07/21 02:52:21;;;;;;;37.47;25.30;;;;;;;19.73;85.25;101588.59;5029351;28;20029;-77
2022/07/21 02:54:47;;;;;;;37.05;24.75;;;;;;;19.78;85.32;101583.28;5030933;28;20052;-77
2022/07/21 02:57:12;;;;;;;37.78;26.55;;;;;;;19.81;84.60;101573.81;5031332;28;20094;-77
2022/07/21 02:59:37;;;;;;;41.42;25.95;;;;;;;19.74;85.04;101579.34;5031182;28;20028;-77
2022/07/21 03:02:03;;;;;;;37.85;26.10;;;;;;;19.65;85.22;101575.19;5031340;28;20025;-77
2022/07/21 03:04:28;;;;;;;46.55;27.63;;;;;;;19.58;85.99;101566.22;5031256;28;20493;-77
2022/07/21 03:06:53;;;;;;;43.38;26.35;;;;;;;19.52;86.21;101571.53;5029353;28;20030;-78
2022/07/21 03:09:19;;;;;;;39.35;27.33;;;;;;;19.51;86.38;101563.56;5031079;28;20025;-78
2022/07/21 03:11:44;;;;;;;38.63;25.92;;;;;;;19.56;86.71;101569.16;5029694;28;20025;-76
2022/07/21 03:14:09;;;;;;;43.72;26.20;;;;;;;19.62;86.48;101564.72;5029483;28;20033;-77
2022/07/21 03:16:35;;;;;;;44.00;26.90;;;;;;;19.67;86.29;101573.13;5030532;28;20026;-78
2022/07/21 03:19:00;;;;;;;42.50;26.40;;;;;;;19.71;85.64;101572.44;5030732;28;20577;-76
2022/07/21 03:21:25;;;;;;;40.30;25.38;;;;;;;19.73;86.00;101573.03;5030819;28;20363;-76
2022/07/21 03:23:51;;;;;;;41.55;28.35;;;;;;;19.59;86.18;101587.00;5034517;28;20021;-76
2022/07/21 03:26:17;;;;;;;45.85;27.30;;;;;;;19.58;87.01;101571.69;5034015;28;20017;-78
2022/07/21 03:28:43;;;;;;;49.50;28.70;;;;;;;19.58;86.92;101571.69;5033032;28;20366;-76
2022/07/21 03:31:08;;;;;;;49.58;29.58;;;;;;;19.56;86.90;101582.00;5032306;28;20418;-77
2022/07/21 03:33:35;;;;;;;45.25;28.95;;;;;;;19.51;87.18;101580.78;5032249;28;20033;-77
2022/07/21 03:36:01;;;;;;;41.58;25.70;;;;;;;19.55;87.51;101580.34;5033947;28;20053;-77
2022/07/21 03:38:26;;;;;;;42.47;27.55;;;;;;;19.56;87.20;101585.56;5035793;28;20057;-78
2022/07/21 03:40:51;;;;;;;51.15;27.45;;;;;;;19.59;87.14;101592.47;5040489;28;20049;-77
2022/07/21 03:43:17;;;;;;;38.65;26.33;;;;;;;19.57;87.29;101583.69;5037420;28;20029;-76
2022/07/21 03:45:42;;;;;;;41.50;26.50;;;;;;;19.56;87.38;101571.06;5033953;28;20401;-76
2022/07/21 03:48:09;;;;;;;40.95;25.85;;;;;;;19.58;87.18;101567.06;5029655;28;20026;-77
2022/07/21 03:50:37;;;;;;;41.22;25.92;;;;;;;19.59;87.53;101576.94;5029449;28;20025;-77
2022/07/21 03:53:02;;;;;;;;;;;;;;;19.65;87.29;101567.00;5031042;28;20037;-77
2022/07/21 03:55:29;;;;;;;44.25;26.27;;;;;;;19.66;86.90;101575.00;5031404;28;19909;-77
2022/07/21 03:58:00;;;;;;;37.97;25.73;;;;;;;19.66;87.21;101574.13;5015839;28;20029;-78
2022/07/21 04:00:28;;;;;;;46.15;26.88;;;;;;;19.62;87.31;101575.66;5030304;28;20040;-78
2022/07/21 04:02:54;;;;;;;48.70;26.90;;;;;;;19.58;87.40;101575.25;5030734;28;20095;-78
2022/07/21 04:05:20;;;;;;;44.65;25.67;;;;;;;19.60;87.37;101573.13;5031609;28;20517;-77
2022/07/21 04:07:48;;;;;;;40.17;25.90;;;;;;;19.59;87.58;101574.22;5030207;28;20030;-76
2022/07/21 04:10:17;;;;;;;43.83;25.85;;;;;;;19.61;87.50;101585.72;5029231;28;20026;-76
2022/07/21 04:12:42;;;;;;;62.85;26.30;;;;;;;19.63;87.63;101585.50;5012887;28;20057;-79
2022/07/21 04:15:09;;;;;;;66.68;26.92;;;;;;;19.68;87.45;101585.69;5029267;28;20064;-78
2022/07/21 04:17:35;;;;;;;73.37;27.37;;;;;;;19.73;87.64;101594.06;5030370;28;20028;-78
2022/07/21 04:20:00;;;;;;;75.75;27.08;;;;;;;19.74;87.87;101588.34;5032178;28;20287;-77
2022/07/21 04:22:26;;;;;;;75.78;27.55;;;;;;;19.71;87.69;101597.00;5033941;28;20104;-77
2022/07/21 04:24:51;;;;;;;66.88;26.52;;;;;;;19.73;87.27;101591.31;5033887;28;20108;-77
2022/07/21 04:27:17;;;;;;;65.40;26.30;;;;;;;19.70;86.89;101592.63;5032885;28;20030;-77
2022/07/21 04:29:42;;;;;;;74.88;26.58;;;;;;;19.69;87.19;101603.75;5033707;28;20045;-76
2022/07/21 04:32:07;;;;;;;74.18;27.17;;;;;;;19.66;87.03;101604.16;5033951;28;20068;-77
2022/07/21 04:34:33;;;;;;;63.88;27.13;;;;;;;19.66;87.02;101595.97;5033102;28;20031;-77
2022/07/21 04:36:58;;;;;;;72.95;28.05;;;;;;;19.61;86.86;101596.63;5032900;28;20033;-77
2022/07/21 04:39:24;;;;;;;72.97;28.20;;;;;;;19.59;87.62;101601.50;5033222;28;20029;-78
2022/07/21 04:41:49;;;;;;;67.53;28.02;;;;;;;19.60;87.61;101602.34;5032669;28;20025;-78
2022/07/21 04:44:14;;;;;;;67.05;26.38;;;;;;;19.55;87.38;101607.63;5032248;28;20021;-78
2022/07/21 04:46:40;;;;;;;60.85;26.45;;;;;;;19.53;87.71;101605.13;5032687;28;20040;-78
2022/07/21 04:49:05;;;;;;;57.28;26.63;;;;;;;19.52;88.05;101604.28;5034693;28;20075;-77
2022/07/21 04:51:30;;;;;;;56.85;27.42;;;;;;;19.53;88.51;101605.94;5036081;28;20025;-78
2022/07/21 04:53:56;;;;;;;61.22;27.55;;;;;;;19.54;88.76;101601.34;5033243;28;20021;-78
2022/07/21 04:56:21;;;;;;;64.88;28.05;;;;;;;19.56;88.27;101610.13;5033927;28;20037;-78
2022/07/21 04:58:46;;;;;;;68.07;27.02;;;;;;;19.57;88.24;101606.34;5032694;28;20032;-77
2022/07/21 05:01:12;;;;;;;67.55;27.58;;;;;;;19.62;88.18;101613.88;5031981;28;20499;-78
2022/07/21 05:03:37;;;;;;;58.55;25.58;;;;;;;19.63;87.95;101612.81;5033072;28;20085;-77
2022/07/21 05:06:03;;;;;;;65.82;26.33;;;;;;;19.63;87.14;101612.81;5033301;28;20025;-78
2022/07/21 05:08:28;;;;;;;60.15;25.52;;;;;;;19.61;86.81;101607.56;5033052;28;20028;-78
2022/07/21 05:10:53;;;;;;;63.80;26.67;;;;;;;19.57;86.82;101605.53;5033351;28;20112;-77
2022/07/21 05:13:19;;;;;;;59.78;25.45;;;;;;;19.58;86.96;101608.00;5033288;28;20044;-78
2022/07/21 05:15:44;;;;;;;58.15;23.73;;;;;;;19.55;87.11;101603.00;5033185;28;20033;-77
2022/07/21 05:18:09;;;;;;;66.68;26.48;;;;;;;19.56;87.99;101609.28;5033000;28;20033;-77
2022/07/21 05:20:35;;;;;;;51.03;25.15;;;;;;;19.57;88.97;101597.34;5033027;28;20077;-77
2022/07/21 05:23:01;;;;;;;48.15;24.48;;;;;;;19.55;88.96;101597.53;5031483;28;20029;-77
2022/07/21 05:25:27;;;;;;;57.08;26.15;;;;;;;19.55;88.94;101602.19;5032679;28;20367;-77
2022/07/21 05:27:52;;;;;;;55.78;25.23;;;;;;;19.51;88.40;101605.34;5015023;28;20029;-76
2022/07/21 05:30:18;;;;;;;47.88;22.90;;;;;;;19.46;88.16;101602.47;5031148;28;20030;-76
2022/07/21 05:32:43;;;;;;;56.70;24.38;;;;;;;19.45;88.88;101610.84;5033511;28;20048;-76
2022/07/21 05:35:11;;;;;;;54.45;24.67;;;;;;;19.43;89.38;101602.91;5030872;28;20045;-77
2022/07/21 05:37:39;;;;;;;57.72;26.17;;;;;;;19.44;89.97;101609.19;5031587;28;20091;-76
2022/07/21 05:40:06;;;;;;;61.17;26.10;;;;;;;19.44;90.86;101606.47;5032412;28;20029;-76
2022/07/21 05:42:31;;;;;;;57.87;27.97;;;;;;;19.45;92.03;101611.69;5032550;28;20380;-76
2022/07/21 05:44:58;;;;;;;63.17;25.23;;;;;;;19.40;91.80;101614.25;5014525;28;20112;-76
2022/07/21 05:47:23;;;;;;;42.25;23.15;;;;;;;19.36;92.39;101604.84;5032233;28;20048;-76
2022/07/21 05:49:48;;;;;;;46.40;21.30;;;;;;;19.23;92.49;101611.22;5032288;28;20446;-76
2022/07/21 05:52:14;;;;;;;50.38;23.00;;;;;;;19.15;92.57;101610.66;5031108;28;20033;-75
2022/07/21 05:54:39;;;;;;;54.67;23.50;;;;;;;19.13;94.03;101615.50;5031034;28;20341;-75
2022/07/21 05:57:05;;;;;;;52.70;24.60;;;;;;;19.08;94.67;101613.44;5031654;28;20025;-76
2022/07/21 05:59:30;;;;;;;32.30;20.00;;;;;;;18.98;94.44;101613.91;5031531;28;20029;-76
2022/07/21 06:01:55;;;;;;;37.08;18.30;;;;;;;18.95;94.48;101613.50;5030241;28;20544;-74
2022/07/21 06:04:21;;;;;;;37.53;19.67;;;;;;;18.96;95.11;101610.56;5031889;28;20104;-74
2022/07/21 06:06:46;;;;;;;38.00;20.05;;;;;;;18.95;95.75;101614.34;5031271;28;20075;-75
2022/07/21 06:09:11;;;;;;;37.55;20.00;;;;;;;18.95;95.76;101618.97;5031458;28;20029;-74
2022/07/21 06:11:37;;;;;;;45.05;19.17;;;;;;;18.93;95.99;101616.47;5031625;28;20488;-75
2022/07/21 06:14:03;;;;;;;32.83;18.27;;;;;;;18.96;96.47;101621.50;5031247;28;20029;-75
2022/07/21 06:16:29;;;;;;;38.83;18.77;;;;;;;18.90;96.87;101619.63;5030840;28;20079;-76
2022/07/21 06:18:54;;;;;;;30.80;17.90;;;;;;;18.87;96.81;101611.88;5030644;28;20025;-76
2022/07/21 06:21:19;;;;;;;32.35;16.23;;;;;;;18.89;97.09;101623.41;5030611;28;20036;-75
2022/07/21 06:23:45;;;;;;;30.42;15.88;;;;;;;18.82;96.53;101625.31;5030623;28;20040;-76
2022/07/21 06:26:10;;;;;;;24.42;12.55;;;;;;;18.83;97.09;101632.47;5035903;28;20104;-73
2022/07/21 06:28:35;;;;;;;19.35;11.50;;;;;;;18.76;97.11;101627.03;5038202;28;20086;-75
2022/07/21 06:31:01;;;;;;;25.73;11.85;;;;;;;18.75;97.64;101624.53;5033829;28;20086;-73
2022/07/21 06:33:26;;;;;;;17.98;10.02;;;;;;;18.67;97.48;101628.31;5031720;28;20022;-74
2022/07/21 06:35:51;;;;;;;22.08;11.55;;;;;;;18.68;97.74;101623.69;5030843;28;20477;-75
2022/07/21 06:38:17;;;;;;;27.63;11.27;;;;;;;18.68;98.17;101629.97;5031255;28;20082;-76
2022/07/21 06:40:42;;;;;;;17.58;10.65;;;;;;;18.68;98.55;101626.41;5031968;28;20037;-75
2022/07/21 06:43:08;;;;;;;25.70;11.45;;;;;;;18.69;99.11;101630.81;5030181;28;20029;-75
2022/07/21 06:45:33;;;;;;;26.30;13.27;;;;;;;18.63;99.29;101627.91;5030766;28;20021;-75
2022/07/21 06:48:03;;;;;;;34.47;14.02;;;;;;;18.61;98.96;101626.44;5032478;28;20080;-75
2022/07/21 06:50:29;;;;;;;22.73;13.95;;;;;;;18.53;98.62;101627.50;5033547;28;20022;-76
2022/07/21 06:52:54;;;;;;;29.15;14.13;;;;;;;18.53;98.49;101635.69;5031871;28;20544;-76
2022/07/21 06:55:20;;;;;;;25.27;14.88;;;;;;;18.49;98.62;101633.63;5030973;28;20389;-75
2022/07/21 06:57:45;;;;;;;33.20;15.95;;;;;;;18.45;98.82;101646.84;5031726;28;20111;-75
2022/07/21 07:00:11;;;;;;;34.17;12.02;;;;;;;18.33;98.90;101648.56;5032131;28;20103;-76
2022/07/21 07:02:36;;;;;;;28.80;15.05;;;;;;;18.22;98.69;101647.34;5033673;28;20040;-75
2022/07/21 07:05:02;;;;;;;27.23;14.40;;;;;;;18.15;99.32;101658.25;5032934;28;20017;-75
2022/07/21 07:07:29;;;;;;;29.95;15.27;;;;;;;18.13;100.00;101662.22;5033382;28;20041;-75
2022/07/21 07:09:54;;;;;;;27.92;15.05;;;;;;;18.07;100.00;101663.09;5031436;28;20025;-75
2022/07/21 07:12:20;;;;;;;27.60;14.85;;;;;;;18.06;100.00;101669.56;5031750;28;20116;-75
2022/07/21 07:14:45;;;;;;;27.48;16.02;;;;;;;18.09;100.00;101670.00;5032572;28;20151;-76
2022/07/21 07:17:16;;;;;;;31.33;17.45;;;;;;;18.08;100.00;101665.56;5031997;28;20061;-75
2022/07/21 07:19:41;;;;;;;39.22;19.38;;;;;;;18.08;100.00;101665.56;5029984;28;20025;-74
2022/07/21 07:22:07;;;;;;;39.70;20.20;;;;;;;18.08;100.00;101668.28;5030669;28;20108;-75
2022/07/21 07:24:32;;;;;;;46.72;22.35;;;;;;;18.17;100.00;101667.03;5030706;28;20045;-76
2022/07/21 07:26:58;;;;;;;49.97;23.45;;;;;;;18.23;100.00;101664.53;5030812;28;20065;-77
2022/07/21 07:29:23;;;;;;;45.45;24.23;;;;;;;18.31;100.00;101659.66;5030670;28;20079;-75
2022/07/21 07:31:48;;;;;;;54.95;25.83;;;;;;;18.39;100.00;101664.06;5030855;28;20491;-76
2022/07/21 07:34:14;;;;;;;51.05;24.50;;;;;;;18.39;100.00;101662.16;5029468;28;20392;-75
2022/07/21 07:36:39;;;;;;;48.38;25.73;;;;;;;18.38;100.00;101662.41;5030795;28;20052;-75
2022/07/21 07:39:04;;;;;;;46.60;25.95;;;;;;;18.36;100.00;101665.31;5030858;28;20071;-76
2022/07/21 07:41:31;;;;;;;51.92;23.50;;;;;;;18.35;100.00;101660.94;5030733;28;20071;-76
2022/07/21 07:43:58;;;;;;;62.90;25.05;;;;;;;18.35;100.00;101660.94;5031055;28;20481;-76
2022/07/21 07:46:23;;;;;;;50.13;22.50;;;;;;;18.34;100.00;101666.59;5030097;28;20025;-77
2022/07/21 07:48:48;;;;;;;44.08;20.58;;;;;;;18.34;100.00;101674.75;5031029;28;20025;-76
2022/07/21 07:51:14;;;;;;;44.13;21.92;;;;;;;18.38;100.00;101673.28;5030785;28;20029;-75
2022/07/21 07:53:40;;;;;;;37.95;19.58;;;;;;;18.39;100.00;101674.97;5030492;28;20084;-75
2022/07/21 07:56:06;;;;;;;38.92;18.83;;;;;;;18.38;100.00;101673.28;5035176;28;20113;-76
2022/07/21 07:58:32;;;;;;;42.10;17.10;;;;;;;18.23;100.00;101673.53;5035519;28;20029;-76
2022/07/21 08:00:57;;;;;;;36.92;16.90;;;;;;;18.16;100.00;101669.97;5036875;28;20068;-77
2022/07/21 08:03:24;;;;;;;36.00;19.27;;;;;;;18.21;100.00;101673.72;5036230;28;20029;-77
2022/07/21 08:05:49;;;;;;;43.42;18.38;;;;;;;18.23;100.00;101675.41;5040612;28;20076;-78
2022/07/21 08:08:16;;;;;;;40.13;18.23;;;;;;;18.27;100.00;101677.47;5037623;28;20033;-77
2022/07/21 08:10:41;;;;;;;36.53;18.08;;;;;;;18.28;100.00;101671.00;5035910;28;20118;-77
2022/07/21 08:13:08;;;;;;;32.00;17.27;;;;;;;18.25;100.00;101679.59;5036358;28;20505;-78
2022/07/21 08:15:34;;;;;;;36.22;17.52;;;;;;;18.30;100.00;101684.41;5037800;28;20078;-78
2022/07/21 08:17:59;;;;;;;32.53;14.13;;;;;;;18.19;100.00;101675.84;5040039;28;20029;-78
2022/07/21 08:20:25;;;;;;;35.15;15.13;;;;;;;18.25;100.00;101684.22;5036658;28;20037;-79
2022/07/21 08:22:50;;;;;;;37.78;15.63;;;;;;;18.25;100.00;101686.94;5036258;28;20544;-79
2022/07/21 08:25:15;;;;;;;32.08;15.07;;;;;;;18.29;100.00;101680.00;5034496;28;20061;-79
2022/07/21 08:27:42;;;;;;;29.58;13.70;;;;;;;18.38;100.00;101678.75;5034170;28;20107;-79
2022/07/21 08:30:08;;;;;;;29.30;14.52;;;;;;;18.48;100.00;101678.28;5015959;28;20025;-78
2022/07/21 08:32:34;;;;;;;28.08;14.60;;;;;;;18.55;100.00;101685.38;5033918;28;20453;-78
2022/07/21 08:35:00;;;;;;;30.77;15.18;;;;;;;18.60;100.00;101680.13;5033523;28;20053;-79
2022/07/21 08:37:25;;;;;;;30.23;14.77;;;;;;;18.72;100.00;101684.91;5032473;28;20112;-78
2022/07/21 08:39:52;;;;;;;24.92;11.85;;;;;;;18.76;100.00;101678.84;5032749;28;20021;-78
2022/07/21 08:42:18;;;;;;;27.75;13.02;;;;;;;18.87;100.00;101685.50;5033978;28;20025;-78
2022/07/21 08:44:43;;;;;;;21.35;12.07;;;;;;;19.00;100.00;101688.19;5032182;28;20044;-79
2022/07/21 08:47:08;;;;;;;20.25;9.32;;;;;;;18.98;98.53;101690.28;5034050;28;20025;-79
2022/07/21 08:49:35;;;;;;;18.25;9.35;;;;;;;18.95;97.39;101698.91;5032674;28;20042;-79
2022/07/21 08:52:00;;;;;;;13.02;8.45;;;;;;;19.00;97.44;101695.53;5034014;28;20111;-79
2022/07/21 08:54:25;;;;;;;17.30;10.25;;;;;;;19.03;97.54;101690.47;5032541;28;20029;-79
2022/07/21 08:56:51;;;;;;;18.60;9.07;;;;;;;19.13;97.66;101698.19;5033687;28;20033;-78
2022/07/21 08:59:17;;;;;;;14.30;7.00;;;;;;;19.10;96.30;101697.81;5033598;28;20104;-78
2022/07/21 09:01:42;;;;;;;10.80;6.10;;;;;;;19.05;95.05;101696.56;5033589;28;20028;-79
2022/07/21 09:04:27;;;;;;;9.98;4.88;;;;;;;19.03;94.52;101698.66;5033551;28;20071;-77
2022/07/21 09:07:04;;;;;;;6.60;3.92;;;;;;;18.96;93.82;101705.22;5033077;28;20431;-79
2022/07/21 09:09:31;;;;;;;8.43;4.40;;;;;;;18.90;93.43;101704.16;5032193;28;20029;-79
2022/07/21 09:11:57;;;;;;;7.22;3.97;;;;;;;18.74;93.49;101710.06;5033689;28;20371;-78
2022/07/21 09:14:29;;;;;;;7.05;4.30;;;;;;;18.66;94.17;101713.88;5031754;28;20100;-78
2022/07/21 09:16:59;;;;;;;10.30;4.75;;;;;;;18.64;95.26;101722.28;5033807;28;20087;-79
2022/07/21 09:19:35;;;;;;;10.48;4.88;;;;;;;18.61;96.09;101711.78;5033721;28;20030;-79
2022/07/21 09:22:02;;;;;;;9.55;4.70;;;;;;;18.56;97.07;101714.34;5033879;28;20060;-79
2022/07/21 09:24:29;;;;;;;6.68;4.80;;;;;;;18.60;97.28;101720.19;5031971;28;20033;-79
2022/07/21 09:27:14;;;;;;;7.95;4.00;;;;;;;18.52;97.25;101712.25;5031808;28;20152;-78
2022/07/21 09:29:45;;;;;;;5.35;4.80;;;;;;;18.51;97.68;101713.28;5033253;28;20075;-79
2022/07/21 09:32:24;;;;;;;7.93;4.38;;;;;;;18.39;98.02;101713.13;5036828;28;20129;-75
2022/07/21 09:34:52;;;;;;;6.90;3.40;;;;;;;18.28;98.24;101719.22;5035389;28;20025;-75
2022/07/21 09:37:18;;;;;;;;;;;;;;;18.22;98.75;101729.09;5032938;28;20049;-75
2022/07/21 09:39:44;;;;;;;5.72;4.30;;;;;;;18.14;99.90;101727.41;5033195;28;19967;-77
2022/07/21 09:42:27;;;;;;;8.57;4.03;;;;;;;18.11;100.00;101727.81;5033600;28;20017;-77
2022/07/21 09:45:02;;;;;;;7.82;4.55;;;;;;;18.09;100.00;101724.47;5038987;28;20036;-76
2022/07/21 09:47:29;;;;;;;11.35;4.95;;;;;;;18.08;100.00;101728.22;5034905;28;20068;-75
2022/07/21 09:49:56;;;;;;;15.90;4.90;;;;;;;18.03;100.00;101730.75;5038928;28;20024;-74
2022/07/21 09:52:29;;;;;;;20.40;5.53;;;;;;;18.06;100.00;101733.06;5032701;28;20450;-76
2022/07/21 09:54:58;;;;;;;11.25;5.22;;;;;;;17.97;100.00;101731.59;5033029;28;20513;-76
2022/07/21 09:57:24;;;;;;;10.55;4.30;;;;;;;18.01;100.00;101734.72;5033960;28;20048;-76
2022/07/21 09:59:50;;;;;;;9.60;4.10;;;;;;;17.99;100.00;101735.78;5036432;28;20460;-75
2022/07/21 10:02:26;;;;;;;8.77;4.00;;;;;;;18.04;100.00;101737.88;5037105;28;20104;-77
2022/07/21 10:05:06;;;;;;;7.45;3.90;;;;;;;18.10;100.00;101744.38;5038317;28;20424;-78
2022/07/21 10:07:33;;;;;;;10.63;4.22;;;;;;;18.15;100.00;101750.88;5039266;28;20029;-78
2022/07/21 10:09:58;;;;;;;7.13;4.18;;;;;;;18.11;100.00;101746.03;5034977;28;20021;-77
2022/07/21 10:12:25;;;;;;;8.27;3.45;;;;;;;18.26;100.00;101751.28;5037263;28;20029;-78
2022/07/21 10:14:51;;;;;;;8.40;3.60;;;;;;;18.36;100.00;101746.25;5035177;28;20433;-79
2022/07/21 10:17:20;;;;;;;6.95;3.00;;;;;;;18.52;100.00;101745.78;5036320;28;20287;-78
2022/07/21 10:19:52;;;;;;;6.07;3.13;;;;;;;18.60;100.00;101748.28;5032665;28;20033;-78
2022/07/21 10:22:55;;;;;;;13.25;3.70;;;;;;;18.70;100.00;101747.03;5032761;28;20030;-76
2022/07/21 10:25:21;;;;;;;10.82;3.63;;;;;;;18.69;99.85;101750.78;5034871;28;20139;-77
2022/07/21 10:28:23;;;;;;;9.35;2.50;;;;;;;18.61;98.54;101752.69;5033578;28;20465;-78
2022/07/21 10:30:54;;;;;;;8.05;2.58;;;;;;;18.56;98.19;101752.50;5031605;28;20037;-78
2022/07/21 10:33:42;;;;;;;8.05;3.08;;;;;;;18.57;98.46;101756.91;5031466;28;20033;-78
2022/07/21 10:36:08;;;;;;;8.05;1.88;;;;;;;18.52;98.31;101762.16;5021907;28;20046;-78
2022/07/21 10:38:35;;;;;;;7.60;2.28;;;;;;;18.53;98.46;101757.53;5031002;28;20234;-78
2022/07/21 10:41:02;;;;;;;10.33;2.13;;;;;;;18.54;98.69;101754.59;5030517;28;20032;-77
2022/07/21 10:43:27;;;;;;;6.90;2.60;;;;;;;18.52;99.02;101761.31;5031748;28;20471;-78
2022/07/21 10:45:54;;;;;;;5.63;2.40;;;;;;;18.61;99.21;101760.03;5031331;28;20132;-79
2022/07/21 10:48:40;;;;;;;7.37;2.40;;;;;;;18.70;99.45;101771.56;5029531;28;20025;-78
2022/07/21 10:51:15;;;;;;;9.32;2.13;;;;;;;18.67;98.25;101772.84;5015959;28;20029;-79
2022/07/21 10:53:41;;;;;;;4.60;2.20;;;;;;;18.60;97.67;101775.56;5029904;28;20448;-79
2022/07/21 10:56:08;;;;;;;5.30;3.30;;;;;;;18.60;97.67;101775.56;5030445;28;20485;-79
2022/07/21 10:58:44;;;;;;;4.55;2.25;;;;;;;18.55;97.15;101786.25;5032564;28;20477;-79
2022/07/21 11:01:24;;;;;;;6.53;2.45;;;;;;;18.47;97.75;101781.03;5033609;28;20018;-77
2022/07/21 11:04:11;;;;;;;7.28;2.95;;;;;;;18.43;99.18;101790.66;5031236;28;20033;-78
2022/07/21 11:06:38;;;;;;;7.95;3.05;;;;;;;18.41;99.69;101788.16;5032174;28;20465;-78
2022/07/21 11:09:03;;;;;;;9.82;2.65;;;;;;;18.33;99.38;101788.38;5032085;28;20029;-77
2022/07/21 11:11:33;;;;;;;9.07;2.95;;;;;;;18.32;99.85;101789.41;5031990;28;20543;-79
2022/07/21 11:14:17;;;;;;;11.70;3.20;;;;;;;18.36;99.96;101792.59;5031329;28;20503;-78